sensor_id;sensor_type;location;lat;lon;timestamp;temperature;humidity
14079;DHT22;7115;50.150;8.568;2024-02-26T00:02:22;9.30;99.90
14079;DHT22;7115;50.150;8.568;2024-02-26T00:04:49;9.40;99.90
14079;DHT22;7115;50.150;8.568;2024-02-26T00:07:16;9.40;99.90
14079;DHT22;7115;50.150;8.568;2024-02-26T00:09:43;9.40;99.90
14079;DHT22;7115;50.150;8.568;2024-02-26T00:12:10;9.40;99.90
14079;DHT22;7115;50.150;8.568;2024-02-26T00:14:39;9.40;99.90
14079;DHT22;7115;50.150;8.568;2024-02-26T00:17:06;9.30;99.90
14079;DHT22;7115;50.150;8.568;2024-02-26T00:19:34;9.30;99.90
14079;DHT22;7115;50.150;8.568;2024-02-26T00:22:01;9.30;99.90
14079;DHT22;7115;50.150;8.568;2024-02-26T00:24:28;9.30;99.90
14079;DHT22;7115;50.150;8.568;2024-02-26T00:26:55;9.30;99.90
14079;DHT22;7115;50.150;8.568;2024-02-26T00:29:22;9.30;99.90
14079;DHT22;7115;50.150;8.568;2024-02-26T00:31:51;9.30;99.90
14079;DHT22;7115;50.150;8.568;2024-02-26T00:34:18;9.30;99.90
14079;DHT22;7115;50.150;8.568;2024-02-26T00:36:45;9.30;99.90
14079;DHT22;7115;50.150;8.568;2024-02-26T00:39:12;9.20;99.90
14079;DHT22;7115;50.150;8.568;2024-02-26T00:41:40;9.20;99.90
14079;DHT22;7115;50.150;8.568;2024-02-26T00:44:07;9.20;99.90
14079;DHT22;7115;50.150;8.568;2024-02-26T00:46:34;9.10;99.90
14079;DHT22;7115;50.150;8.568;2024-02-26T00:49:03;9.20;99.90
14079;DHT22;7115;50.150;8.568;2024-02-26T00:51:30;9.20;99.90
14079;DHT22;7115;50.150;8.568;2024-02-26T00:53:57;9.20;99.90
14079;DHT22;7115;50.150;8.568;2024-02-26T00:56:25;9.20;99.90
14079;DHT22;7115;50.150;8.568;2024-02-26T00:58:52;9.20;99.90
14079;DHT22;7115;50.150;8.568;2024-02-26T01:01:19;9.20;99.90
14079;DHT22;7115;50.150;8.568;2024-02-26T01:03:46;9.20;99.90
14079;DHT22;7115;50.150;8.568;2024-02-26T01:06:15;9.20;99.90
14079;DHT22;7115;50.150;8.568;2024-02-26T01:08:42;9.20;99.90
14079;DHT22;7115;50.150;8.568;2024-02-26T01:11:09;9.20;99.90
14079;DHT22;7115;50.150;8.568;2024-02-26T01:13:36;9.20;99.90
14079;DHT22;7115;50.150;8.568;2024-02-26T01:16:04;9.10;99.90
14079;DHT22;7115;50.150;8.568;2024-02-26T01:18:31;9.10;99.90
14079;DHT22;7115;50.150;8.568;2024-02-26T01:20:58;9.10;99.90
14079;DHT22;7115;50.150;8.568;2024-02-26T01:23:26;9.10;99.90
14079;DHT22;7115;50.150;8.568;2024-02-26T01:25:55;9.10;99.90
14079;DHT22;7115;50.150;8.568;2024-02-26T01:28:22;9.10;99.90
14079;DHT22;7115;50.150;8.568;2024-02-26T01:30:48;9.10;99.90
14079;DHT22;7115;50.150;8.568;2024-02-26T01:33:15;9.10;99.90
14079;DHT22;7115;50.150;8.568;2024-02-26T01:35:43;9.10;99.90
14079;DHT22;7115;50.150;8.568;2024-02-26T01:38:10;9.20;99.90
14079;DHT22;7115;50.150;8.568;2024-02-26T01:40:38;9.20;99.90
14079;DHT22;7115;50.150;8.568;2024-02-26T01:43:05;9.20;99.90
14079;DHT22;7115;50.150;8.568;2024-02-26T01:45:32;9.20;99.90
14079;DHT22;7115;50.150;8.568;2024-02-26T01:47:59;9.20;99.90
14079;DHT22;7115;50.150;8.568;2024-02-26T01:50:27;9.20;99.90
14079;DHT22;7115;50.150;8.568;2024-02-26T01:52:56;9.20;99.90
14079;DHT22;7115;50.150;8.568;2024-02-26T01:55:24;9.20;99.90
14079;DHT22;7115;50.150;8.568;2024-02-26T01:57:53;9.20;99.90
14079;DHT22;7115;50.150;8.568;2024-02-26T02:00:21;9.20;99.90
14079;DHT22;7115;50.150;8.568;2024-02-26T02:02:49;9.20;99.90
14079;DHT22;7115;50.150;8.568;2024-02-26T02:05:17;9.20;99.90
14079;DHT22;7115;50.150;8.568;2024-02-26T02:07:45;9.10;99.90
14079;DHT22;7115;50.150;8.568;2024-02-26T02:10:13;9.10;99.90
14079;DHT22;7115;50.150;8.568;2024-02-26T02:12:41;9.10;99.90
14079;DHT22;7115;50.150;8.568;2024-02-26T02:15:09;9.10;99.90
14079;DHT22;7115;50.150;8.568;2024-02-26T02:17:37;9.10;99.90
14079;DHT22;7115;50.150;8.568;2024-02-26T02:20:08;9.20;99.90
14079;DHT22;7115;50.150;8.568;2024-02-26T02:22:36;9.20;99.90
14079;DHT22;7115;50.150;8.568;2024-02-26T02:25:05;9.20;99.90
14079;DHT22;7115;50.150;8.568;2024-02-26T02:27:32;9.20;99.90
14079;DHT22;7115;50.150;8.568;2024-02-26T02:29:59;9.20;99.90
14079;DHT22;7115;50.150;8.568;2024-02-26T02:32:27;9.10;99.90
14079;DHT22;7115;50.150;8.568;2024-02-26T02:34:54;9.10;99.90
14079;DHT22;7115;50.150;8.568;2024-02-26T02:37:21;9.10;99.90
14079;DHT22;7115;50.150;8.568;2024-02-26T02:39:49;9.20;99.90
14079;DHT22;7115;50.150;8.568;2024-02-26T02:42:16;9.10;99.90
14079;DHT22;7115;50.150;8.568;2024-02-26T02:44:43;9.20;99.90
14079;DHT22;7115;50.150;8.568;2024-02-26T02:47:11;9.20;99.90
14079;DHT22;7115;50.150;8.568;2024-02-26T02:49:38;9.20;99.90
14079;DHT22;7115;50.150;8.568;2024-02-26T02:52:05;9.20;99.90
14079;DHT22;7115;50.150;8.568;2024-02-26T02:54:32;9.20;99.90
14079;DHT22;7115;50.150;8.568;2024-02-26T02:57:01;9.20;99.90
14079;DHT22;7115;50.150;8.568;2024-02-26T02:59:28;9.20;99.90
14079;DHT22;7115;50.150;8.568;2024-02-26T03:01:57;9.20;99.90
14079;DHT22;7115;50.150;8.568;2024-02-26T03:04:24;9.20;99.90
14079;DHT22;7115;50.150;8.568;2024-02-26T03:06:52;9.20;99.90
14079;DHT22;7115;50.150;8.568;2024-02-26T03:09:19;9.20;99.90
14079;DHT22;7115;50.150;8.568;2024-02-26T03:11:46;9.20;99.90
14079;DHT22;7115;50.150;8.568;2024-02-26T03:14:14;9.20;99.90
14079;DHT22;7115;50.150;8.568;2024-02-26T03:16:41;9.20;99.90
14079;DHT22;7115;50.150;8.568;2024-02-26T03:19:08;9.20;99.90
14079;DHT22;7115;50.150;8.568;2024-02-26T03:21:35;9.20;99.90
14079;DHT22;7115;50.150;8.568;2024-02-26T03:24:02;9.20;99.90
14079;DHT22;7115;50.150;8.568;2024-02-26T03:26:29;9.20;99.90
14079;DHT22;7115;50.150;8.568;2024-02-26T03:28:58;9.20;99.90
14079;DHT22;7115;50.150;8.568;2024-02-26T03:31:26;9.10;99.90
14079;DHT22;7115;50.150;8.568;2024-02-26T03:33:53;9.20;99.90
14079;DHT22;7115;50.150;8.568;2024-02-26T03:36:20;9.10;99.90
14079;DHT22;7115;50.150;8.568;2024-02-26T03:38:48;9.10;99.90
14079;DHT22;7115;50.150;8.568;2024-02-26T03:41:15;9.10;99.90
14079;DHT22;7115;50.150;8.568;2024-02-26T03:43:42;9.10;99.90
14079;DHT22;7115;50.150;8.568;2024-02-26T03:46:09;9.10;99.90
14079;DHT22;7115;50.150;8.568;2024-02-26T03:48:42;9.20;99.90
14079;DHT22;7115;50.150;8.568;2024-02-26T03:51:09;9.10;99.90
14079;DHT22;7115;50.150;8.568;2024-02-26T03:53:37;9.10;99.90
14079;DHT22;7115;50.150;8.568;2024-02-26T03:56:05;9.10;99.90
14079;DHT22;7115;50.150;8.568;2024-02-26T03:58:32;9.10;99.90
14079;DHT22;7115;50.150;8.568;2024-02-26T04:00:59;9.10;99.90
14079;DHT22;7115;50.150;8.568;2024-02-26T04:03:26;9.10;99.90
14079;DHT22;7115;50.150;8.568;2024-02-26T04:05:54;9.10;99.90
14079;DHT22;7115;50.150;8.568;2024-02-26T04:08:21;9.10;99.90
14079;DHT22;7115;50.150;8.568;2024-02-26T04:10:49;9.10;99.90
14079;DHT22;7115;50.150;8.568;2024-02-26T04:13:17;9.10;99.90
14079;DHT22;7115;50.150;8.568;2024-02-26T04:15:44;9.10;99.90
14079;DHT22;7115;50.150;8.568;2024-02-26T04:18:11;9.10;99.90
14079;DHT22;7115;50.150;8.568;2024-02-26T04:20:38;9.10;99.90
14079;DHT22;7115;50.150;8.568;2024-02-26T04:23:07;9.10;99.90
14079;DHT22;7115;50.150;8.568;2024-02-26T04:25:34;9.00;99.90
14079;DHT22;7115;50.150;8.568;2024-02-26T04:28:01;9.00;99.90
14079;DHT22;7115;50.150;8.568;2024-02-26T04:30:28;9.00;99.90
14079;DHT22;7115;50.150;8.568;2024-02-26T04:32:55;9.00;99.90
14079;DHT22;7115;50.150;8.568;2024-02-26T04:35:22;9.00;99.90
14079;DHT22;7115;50.150;8.568;2024-02-26T04:37:49;8.90;99.90
14079;DHT22;7115;50.150;8.568;2024-02-26T04:40:17;8.90;99.90
14079;DHT22;7115;50.150;8.568;2024-02-26T04:42:44;8.90;99.90
14079;DHT22;7115;50.150;8.568;2024-02-26T04:45:11;8.90;99.90
14079;DHT22;7115;50.150;8.568;2024-02-26T04:47:38;8.90;99.90
14079;DHT22;7115;50.150;8.568;2024-02-26T04:50:06;8.90;99.90
14079;DHT22;7115;50.150;8.568;2024-02-26T04:52:33;8.90;99.90
14079;DHT22;7115;50.150;8.568;2024-02-26T04:55:00;8.90;99.90
14079;DHT22;7115;50.150;8.568;2024-02-26T04:57:28;8.90;99.90
14079;DHT22;7115;50.150;8.568;2024-02-26T04:59:55;8.90;99.90
14079;DHT22;7115;50.150;8.568;2024-02-26T05:02:22;8.90;99.90
14079;DHT22;7115;50.150;8.568;2024-02-26T05:04:49;8.90;99.90
14079;DHT22;7115;50.150;8.568;2024-02-26T05:07:16;8.80;99.90
14079;DHT22;7115;50.150;8.568;2024-02-26T05:09:46;8.80;99.90
14079;DHT22;7115;50.150;8.568;2024-02-26T05:12:16;8.80;99.90
14079;DHT22;7115;50.150;8.568;2024-02-26T05:14:44;8.80;99.90
14079;DHT22;7115;50.150;8.568;2024-02-26T05:17:11;8.80;99.90
14079;DHT22;7115;50.150;8.568;2024-02-26T05:19:38;8.70;99.90
14079;DHT22;7115;50.150;8.568;2024-02-26T05:22:06;8.70;99.90
14079;DHT22;7115;50.150;8.568;2024-02-26T05:24:33;8.70;99.90
14079;DHT22;7115;50.150;8.568;2024-02-26T05:27:00;8.70;99.90
14079;DHT22;7115;50.150;8.568;2024-02-26T05:29:27;8.70;99.90
14079;DHT22;7115;50.150;8.568;2024-02-26T05:31:56;8.70;99.90
14079;DHT22;7115;50.150;8.568;2024-02-26T05:34:23;8.70;99.90
14079;DHT22;7115;50.150;8.568;2024-02-26T05:36:50;8.60;99.90
14079;DHT22;7115;50.150;8.568;2024-02-26T05:39:17;8.60;99.90
14079;DHT22;7115;50.150;8.568;2024-02-26T05:41:46;8.60;99.90
14079;DHT22;7115;50.150;8.568;2024-02-26T05:44:14;8.60;99.90
14079;DHT22;7115;50.150;8.568;2024-02-26T05:46:41;8.50;99.90
14079;DHT22;7115;50.150;8.568;2024-02-26T05:49:10;8.50;99.90
14079;DHT22;7115;50.150;8.568;2024-02-26T05:51:37;8.50;99.90
14079;DHT22;7115;50.150;8.568;2024-02-26T05:54:04;8.50;99.90
14079;DHT22;7115;50.150;8.568;2024-02-26T05:56:31;8.50;99.90
14079;DHT22;7115;50.150;8.568;2024-02-26T05:58:58;8.50;99.90
14079;DHT22;7115;50.150;8.568;2024-02-26T06:01:25;8.50;99.90
14079;DHT22;7115;50.150;8.568;2024-02-26T06:03:53;8.50;99.90
14079;DHT22;7115;50.150;8.568;2024-02-26T06:06:21;8.50;99.90
14079;DHT22;7115;50.150;8.568;2024-02-26T06:08:50;8.50;99.90
14079;DHT22;7115;50.150;8.568;2024-02-26T06:11:18;8.50;99.90
14079;DHT22;7115;50.150;8.568;2024-02-26T06:13:45;8.40;99.90
14079;DHT22;7115;50.150;8.568;2024-02-26T06:16:11;8.40;99.90
14079;DHT22;7115;50.150;8.568;2024-02-26T06:18:39;8.40;99.90
14079;DHT22;7115;50.150;8.568;2024-02-26T06:21:09;8.40;99.90
14079;DHT22;7115;50.150;8.568;2024-02-26T06:23:38;8.40;99.90
14079;DHT22;7115;50.150;8.568;2024-02-26T06:26:05;8.40;99.90
14079;DHT22;7115;50.150;8.568;2024-02-26T06:28:32;8.40;99.90
14079;DHT22;7115;50.150;8.568;2024-02-26T06:31:00;8.40;99.90
14079;DHT22;7115;50.150;8.568;2024-02-26T06:33:27;8.40;99.90
14079;DHT22;7115;50.150;8.568;2024-02-26T06:35:54;8.40;99.90
14079;DHT22;7115;50.150;8.568;2024-02-26T06:38:22;8.30;99.90
14079;DHT22;7115;50.150;8.568;2024-02-26T06:40:50;8.40;99.90
14079;DHT22;7115;50.150;8.568;2024-02-26T06:43:17;8.40;99.90
14079;DHT22;7115;50.150;8.568;2024-02-26T06:45:44;8.30;99.90
14079;DHT22;7115;50.150;8.568;2024-02-26T06:48:11;8.30;99.90
14079;DHT22;7115;50.150;8.568;2024-02-26T06:50:38;8.30;99.90
14079;DHT22;7115;50.150;8.568;2024-02-26T06:53:05;8.30;99.90
14079;DHT22;7115;50.150;8.568;2024-02-26T06:55:34;8.30;99.90
14079;DHT22;7115;50.150;8.568;2024-02-26T06:58:02;8.30;99.90
14079;DHT22;7115;50.150;8.568;2024-02-26T07:00:29;8.30;99.90
14079;DHT22;7115;50.150;8.568;2024-02-26T07:02:56;8.30;99.90
14079;DHT22;7115;50.150;8.568;2024-02-26T07:05:23;8.30;99.90
14079;DHT22;7115;50.150;8.568;2024-02-26T07:07:50;8.30;99.90
14079;DHT22;7115;50.150;8.568;2024-02-26T07:10:18;8.30;99.90
14079;DHT22;7115;50.150;8.568;2024-02-26T07:12:45;8.30;99.90
14079;DHT22;7115;50.150;8.568;2024-02-26T07:15:13;8.30;99.90
14079;DHT22;7115;50.150;8.568;2024-02-26T07:17:40;8.30;99.90
14079;DHT22;7115;50.150;8.568;2024-02-26T07:20:14;8.30;99.90
14079;DHT22;7115;50.150;8.568;2024-02-26T07:22:41;8.30;99.90
14079;DHT22;7115;50.150;8.568;2024-02-26T07:25:09;8.30;99.90
14079;DHT22;7115;50.150;8.568;2024-02-26T07:27:40;8.30;99.90
14079;DHT22;7115;50.150;8.568;2024-02-26T07:30:08;8.30;99.90
14079;DHT22;7115;50.150;8.568;2024-02-26T07:32:37;8.30;99.90
14079;DHT22;7115;50.150;8.568;2024-02-26T07:35:05;8.40;99.90
14079;DHT22;7115;50.150;8.568;2024-02-26T07:37:32;8.30;99.90
14079;DHT22;7115;50.150;8.568;2024-02-26T07:39:59;8.40;99.90
14079;DHT22;7115;50.150;8.568;2024-02-26T07:42:26;8.30;99.90
14079;DHT22;7115;50.150;8.568;2024-02-26T07:44:53;8.40;99.90
14079;DHT22;7115;50.150;8.568;2024-02-26T07:47:20;8.30;99.90
14079;DHT22;7115;50.150;8.568;2024-02-26T07:49:49;8.30;99.90
14079;DHT22;7115;50.150;8.568;2024-02-26T07:52:16;8.40;99.90
14079;DHT22;7115;50.150;8.568;2024-02-26T07:54:44;8.30;99.90
14079;DHT22;7115;50.150;8.568;2024-02-26T07:57:11;8.40;99.90
14079;DHT22;7115;50.150;8.568;2024-02-26T07:59:38;8.40;99.90
14079;DHT22;7115;50.150;8.568;2024-02-26T08:02:07;8.40;99.90
14079;DHT22;7115;50.150;8.568;2024-02-26T08:04:34;8.40;99.90
14079;DHT22;7115;50.150;8.568;2024-02-26T08:07:03;8.40;99.90
14079;DHT22;7115;50.150;8.568;2024-02-26T08:09:30;8.40;99.90
14079;DHT22;7115;50.150;8.568;2024-02-26T08:11:57;8.40;99.90
14079;DHT22;7115;50.150;8.568;2024-02-26T08:14:24;8.40;99.90
14079;DHT22;7115;50.150;8.568;2024-02-26T08:16:52;8.40;99.90
14079;DHT22;7115;50.150;8.568;2024-02-26T08:19:18;8.40;99.90
14079;DHT22;7115;50.150;8.568;2024-02-26T08:21:45;8.40;99.90
14079;DHT22;7115;50.150;8.568;2024-02-26T08:24:14;8.40;99.90
14079;DHT22;7115;50.150;8.568;2024-02-26T08:26:41;8.40;99.90
14079;DHT22;7115;50.150;8.568;2024-02-26T08:29:08;8.40;99.90
14079;DHT22;7115;50.150;8.568;2024-02-26T08:31:35;8.50;99.90
14079;DHT22;7115;50.150;8.568;2024-02-26T08:34:04;8.50;99.90
14079;DHT22;7115;50.150;8.568;2024-02-26T08:36:33;8.50;99.90
14079;DHT22;7115;50.150;8.568;2024-02-26T08:39:01;8.50;99.90
14079;DHT22;7115;50.150;8.568;2024-02-26T08:41:29;8.60;99.90
14079;DHT22;7115;50.150;8.568;2024-02-26T08:43:56;8.60;99.90
14079;DHT22;7115;50.150;8.568;2024-02-26T08:46:23;8.60;99.90
14079;DHT22;7115;50.150;8.568;2024-02-26T08:48:50;8.70;99.90
14079;DHT22;7115;50.150;8.568;2024-02-26T08:51:17;8.70;99.90
14079;DHT22;7115;50.150;8.568;2024-02-26T08:53:44;8.70;99.90
14079;DHT22;7115;50.150;8.568;2024-02-26T08:56:11;8.70;99.90
14079;DHT22;7115;50.150;8.568;2024-02-26T08:58:45;8.80;99.90
14079;DHT22;7115;50.150;8.568;2024-02-26T09:01:15;8.80;99.90
14079;DHT22;7115;50.150;8.568;2024-02-26T09:03:43;8.80;99.90
14079;DHT22;7115;50.150;8.568;2024-02-26T09:06:11;8.80;99.90
14079;DHT22;7115;50.150;8.568;2024-02-26T09:08:40;8.80;99.90
14079;DHT22;7115;50.150;8.568;2024-02-26T09:11:07;8.80;99.90
14079;DHT22;7115;50.150;8.568;2024-02-26T09:13:37;8.80;99.90
14079;DHT22;7115;50.150;8.568;2024-02-26T09:16:06;8.80;99.90
14079;DHT22;7115;50.150;8.568;2024-02-26T09:18:33;8.80;99.90
14079;DHT22;7115;50.150;8.568;2024-02-26T09:21:04;8.80;99.90
14079;DHT22;7115;50.150;8.568;2024-02-26T09:23:31;8.70;99.90
14079;DHT22;7115;50.150;8.568;2024-02-26T09:25:59;8.70;99.90
14079;DHT22;7115;50.150;8.568;2024-02-26T09:28:26;8.70;99.90
14079;DHT22;7115;50.150;8.568;2024-02-26T09:30:53;8.70;99.90
14079;DHT22;7115;50.150;8.568;2024-02-26T09:33:22;8.70;99.90
14079;DHT22;7115;50.150;8.568;2024-02-26T09:35:50;8.80;99.90
14079;DHT22;7115;50.150;8.568;2024-02-26T09:38:17;8.80;99.90
14079;DHT22;7115;50.150;8.568;2024-02-26T09:40:44;8.80;99.90
14079;DHT22;7115;50.150;8.568;2024-02-26T09:43:14;8.80;99.90
14079;DHT22;7115;50.150;8.568;2024-02-26T09:45:42;8.90;99.90
14079;DHT22;7115;50.150;8.568;2024-02-26T09:48:11;8.90;99.90
14079;DHT22;7115;50.150;8.568;2024-02-26T09:50:42;8.90;99.90
14079;DHT22;7115;50.150;8.568;2024-02-26T09:53:11;9.00;99.90
14079;DHT22;7115;50.150;8.568;2024-02-26T09:55:39;9.00;99.90
14079;DHT22;7115;50.150;8.568;2024-02-26T09:58:06;9.10;99.90
14079;DHT22;7115;50.150;8.568;2024-02-26T10:00:37;9.10;99.90
14079;DHT22;7115;50.150;8.568;2024-02-26T10:03:09;9.20;99.90
14079;DHT22;7115;50.150;8.568;2024-02-26T10:05:42;9.30;99.90
14079;DHT22;7115;50.150;8.568;2024-02-26T10:08:13;9.40;99.90
14079;DHT22;7115;50.150;8.568;2024-02-26T10:10:41;9.40;99.90
14079;DHT22;7115;50.150;8.568;2024-02-26T10:13:09;9.50;99.90
14079;DHT22;7115;50.150;8.568;2024-02-26T10:15:38;9.70;99.90
14079;DHT22;7115;50.150;8.568;2024-02-26T10:18:06;9.70;99.90
14079;DHT22;7115;50.150;8.568;2024-02-26T10:20:33;9.90;99.90
14079;DHT22;7115;50.150;8.568;2024-02-26T10:23:04;10.00;99.90
14079;DHT22;7115;50.150;8.568;2024-02-26T10:25:34;10.10;99.90
14079;DHT22;7115;50.150;8.568;2024-02-26T10:28:02;10.10;99.90
14079;DHT22;7115;50.150;8.568;2024-02-26T10:30:29;10.10;99.90
14079;DHT22;7115;50.150;8.568;2024-02-26T10:32:57;10.10;99.90
14079;DHT22;7115;50.150;8.568;2024-02-26T10:35:25;10.10;99.90
14079;DHT22;7115;50.150;8.568;2024-02-26T10:37:53;10.00;99.90
14079;DHT22;7115;50.150;8.568;2024-02-26T10:40:22;10.10;99.90
14079;DHT22;7115;50.150;8.568;2024-02-26T10:42:49;10.10;99.90
14079;DHT22;7115;50.150;8.568;2024-02-26T10:45:16;10.00;99.90
14079;DHT22;7115;50.150;8.568;2024-02-26T10:47:43;10.10;99.90
14079;DHT22;7115;50.150;8.568;2024-02-26T10:50:13;10.00;99.90
14079;DHT22;7115;50.150;8.568;2024-02-26T10:52:42;10.10;99.90
14079;DHT22;7115;50.150;8.568;2024-02-26T10:55:14;10.10;99.90
14079;DHT22;7115;50.150;8.568;2024-02-26T10:57:44;10.10;99.90
14079;DHT22;7115;50.150;8.568;2024-02-26T11:00:15;10.10;99.90
14079;DHT22;7115;50.150;8.568;2024-02-26T11:02:44;10.10;99.90
14079;DHT22;7115;50.150;8.568;2024-02-26T11:05:13;10.20;99.90
14079;DHT22;7115;50.150;8.568;2024-02-26T11:07:41;10.20;99.90
14079;DHT22;7115;50.150;8.568;2024-02-26T11:10:10;10.20;99.90
14079;DHT22;7115;50.150;8.568;2024-02-26T11:12:39;10.30;99.90
14079;DHT22;7115;50.150;8.568;2024-02-26T11:15:09;10.30;99.90
14079;DHT22;7115;50.150;8.568;2024-02-26T11:17:36;10.30;99.90
14079;DHT22;7115;50.150;8.568;2024-02-26T11:20:10;10.40;99.90
14079;DHT22;7115;50.150;8.568;2024-02-26T11:22:38;10.50;99.90
14079;DHT22;7115;50.150;8.568;2024-02-26T11:25:05;10.60;99.90
14079;DHT22;7115;50.150;8.568;2024-02-26T11:27:36;10.70;99.90
14079;DHT22;7115;50.150;8.568;2024-02-26T11:30:10;10.80;99.90
14079;DHT22;7115;50.150;8.568;2024-02-26T11:32:38;11.00;99.90
14079;DHT22;7115;50.150;8.568;2024-02-26T11:35:07;11.10;99.90
14079;DHT22;7115;50.150;8.568;2024-02-26T11:37:35;11.10;99.90
14079;DHT22;7115;50.150;8.568;2024-02-26T11:40:11;11.20;99.90
14079;DHT22;7115;50.150;8.568;2024-02-26T11:42:43;11.20;99.90
14079;DHT22;7115;50.150;8.568;2024-02-26T11:48:19;11.40;99.90
14079;DHT22;7115;50.150;8.568;2024-02-26T11:50:49;11.40;99.90
14079;DHT22;7115;50.150;8.568;2024-02-26T11:53:20;11.40;99.90
14079;DHT22;7115;50.150;8.568;2024-02-26T11:55:48;11.40;99.90
14079;DHT22;7115;50.150;8.568;2024-02-26T11:58:16;11.40;99.90
14079;DHT22;7115;50.150;8.568;2024-02-26T12:00:43;11.50;99.90
14079;DHT22;7115;50.150;8.568;2024-02-26T12:03:10;11.50;99.90
14079;DHT22;7115;50.150;8.568;2024-02-26T12:05:41;11.70;99.90
14079;DHT22;7115;50.150;8.568;2024-02-26T12:08:08;11.90;99.90
14079;DHT22;7115;50.150;8.568;2024-02-26T12:10:36;12.00;99.90
14079;DHT22;7115;50.150;8.568;2024-02-26T12:13:07;12.10;99.90
14079;DHT22;7115;50.150;8.568;2024-02-26T12:15:37;12.10;99.90
14079;DHT22;7115;50.150;8.568;2024-02-26T12:18:05;12.20;99.90
14079;DHT22;7115;50.150;8.568;2024-02-26T12:20:33;12.30;99.90
14079;DHT22;7115;50.150;8.568;2024-02-26T12:23:02;12.30;99.90
14079;DHT22;7115;50.150;8.568;2024-02-26T12:25:30;12.30;99.90
14079;DHT22;7115;50.150;8.568;2024-02-26T12:27:58;12.30;99.90
14079;DHT22;7115;50.150;8.568;2024-02-26T12:30:25;12.40;99.90
14079;DHT22;7115;50.150;8.568;2024-02-26T12:32:54;12.40;99.90
14079;DHT22;7115;50.150;8.568;2024-02-26T12:35:24;12.40;99.90
14079;DHT22;7115;50.150;8.568;2024-02-26T12:37:52;12.40;99.90
14079;DHT22;7115;50.150;8.568;2024-02-26T12:40:22;12.40;99.90
14079;DHT22;7115;50.150;8.568;2024-02-26T12:42:49;12.30;99.90
14079;DHT22;7115;50.150;8.568;2024-02-26T12:45:16;12.30;99.90
14079;DHT22;7115;50.150;8.568;2024-02-26T12:47:44;12.30;99.90
14079;DHT22;7115;50.150;8.568;2024-02-26T12:50:13;12.30;99.90
14079;DHT22;7115;50.150;8.568;2024-02-26T12:52:43;12.30;99.90
14079;DHT22;7115;50.150;8.568;2024-02-26T12:55:14;12.30;99.90
14079;DHT22;7115;50.150;8.568;2024-02-26T12:57:44;12.20;99.90
14079;DHT22;7115;50.150;8.568;2024-02-26T13:00:14;12.20;99.90
14079;DHT22;7115;50.150;8.568;2024-02-26T13:02:42;12.20;99.90
14079;DHT22;7115;50.150;8.568;2024-02-26T13:05:12;12.40;99.90
14079;DHT22;7115;50.150;8.568;2024-02-26T13:07:43;12.50;99.90
14079;DHT22;7115;50.150;8.568;2024-02-26T13:10:11;12.70;99.90
14079;DHT22;7115;50.150;8.568;2024-02-26T13:12:46;12.90;99.90
14079;DHT22;7115;50.150;8.568;2024-02-26T13:15:17;13.00;99.90
14079;DHT22;7115;50.150;8.568;2024-02-26T13:17:46;13.00;99.90
14079;DHT22;7115;50.150;8.568;2024-02-26T13:20:24;13.00;99.90
14079;DHT22;7115;50.150;8.568;2024-02-26T13:23:00;12.90;99.90
14079;DHT22;7115;50.150;8.568;2024-02-26T13:25:27;12.80;99.90
14079;DHT22;7115;50.150;8.568;2024-02-26T13:28:06;12.70;99.90
14079;DHT22;7115;50.150;8.568;2024-02-26T13:30:35;12.70;99.90
14079;DHT22;7115;50.150;8.568;2024-02-26T13:33:09;12.70;99.90
14079;DHT22;7115;50.150;8.568;2024-02-26T13:35:37;12.70;99.90
14079;DHT22;7115;50.150;8.568;2024-02-26T13:38:06;12.60;99.90
14079;DHT22;7115;50.150;8.568;2024-02-26T13:40:33;12.60;99.90
14079;DHT22;7115;50.150;8.568;2024-02-26T13:43:05;12.60;99.90
14079;DHT22;7115;50.150;8.568;2024-02-26T13:45:34;12.70;99.90
14079;DHT22;7115;50.150;8.568;2024-02-26T13:48:04;12.70;99.90
14079;DHT22;7115;50.150;8.568;2024-02-26T13:50:31;12.70;99.90
14079;DHT22;7115;50.150;8.568;2024-02-26T13:52:58;12.70;99.90
14079;DHT22;7115;50.150;8.568;2024-02-26T13:55:26;12.70;99.90
14079;DHT22;7115;50.150;8.568;2024-02-26T13:57:55;12.70;99.90
14079;DHT22;7115;50.150;8.568;2024-02-26T14:00:26;12.70;99.90
14079;DHT22;7115;50.150;8.568;2024-02-26T14:02:54;12.70;99.90
14079;DHT22;7115;50.150;8.568;2024-02-26T14:05:21;12.70;99.90
14079;DHT22;7115;50.150;8.568;2024-02-26T14:07:49;12.70;99.90
14079;DHT22;7115;50.150;8.568;2024-02-26T14:10:19;12.70;99.90
14079;DHT22;7115;50.150;8.568;2024-02-26T14:12:46;12.70;99.90
14079;DHT22;7115;50.150;8.568;2024-02-26T14:15:13;12.70;99.90
14079;DHT22;7115;50.150;8.568;2024-02-26T14:17:42;12.70;99.90
14079;DHT22;7115;50.150;8.568;2024-02-26T14:20:10;12.70;99.90
14079;DHT22;7115;50.150;8.568;2024-02-26T14:22:37;12.60;99.90
14079;DHT22;7115;50.150;8.568;2024-02-26T14:25:05;12.60;99.90
14079;DHT22;7115;50.150;8.568;2024-02-26T14:27:32;12.60;99.90
14079;DHT22;7115;50.150;8.568;2024-02-26T14:29:59;12.60;99.90
14079;DHT22;7115;50.150;8.568;2024-02-26T14:32:26;12.60;99.90
14079;DHT22;7115;50.150;8.568;2024-02-26T14:34:56;12.60;99.90
14079;DHT22;7115;50.150;8.568;2024-02-26T14:37:23;12.60;99.90
14079;DHT22;7115;50.150;8.568;2024-02-26T14:39:50;12.50;99.90
14079;DHT22;7115;50.150;8.568;2024-02-26T14:42:18;12.50;99.90
14079;DHT22;7115;50.150;8.568;2024-02-26T14:44:45;12.50;99.90
14079;DHT22;7115;50.150;8.568;2024-02-26T14:47:14;12.50;99.90
14079;DHT22;7115;50.150;8.568;2024-02-26T14:49:41;12.50;99.90
14079;DHT22;7115;50.150;8.568;2024-02-26T14:52:10;12.50;99.90
14079;DHT22;7115;50.150;8.568;2024-02-26T14:54:37;12.50;99.90
14079;DHT22;7115;50.150;8.568;2024-02-26T14:57:06;12.40;99.90
14079;DHT22;7115;50.150;8.568;2024-02-26T14:59:33;12.40;99.90
14079;DHT22;7115;50.150;8.568;2024-02-26T15:02:01;12.40;99.90
14079;DHT22;7115;50.150;8.568;2024-02-26T15:04:28;12.40;99.90
14079;DHT22;7115;50.150;8.568;2024-02-26T15:06:55;12.40;99.90
14079;DHT22;7115;50.150;8.568;2024-02-26T15:09:23;12.40;99.90
14079;DHT22;7115;50.150;8.568;2024-02-26T15:11:50;12.40;99.90
14079;DHT22;7115;50.150;8.568;2024-02-26T15:14:17;12.40;99.90
14079;DHT22;7115;50.150;8.568;2024-02-26T15:16:44;12.50;99.90
14079;DHT22;7115;50.150;8.568;2024-02-26T15:19:11;12.60;99.90
14079;DHT22;7115;50.150;8.568;2024-02-26T15:21:43;12.70;99.90
14079;DHT22;7115;50.150;8.568;2024-02-26T15:24:10;12.80;99.90
14079;DHT22;7115;50.150;8.568;2024-02-26T15:26:45;12.90;99.90
14079;DHT22;7115;50.150;8.568;2024-02-26T15:29:12;13.00;99.90
14079;DHT22;7115;50.150;8.568;2024-02-26T15:31:39;13.10;99.90
14079;DHT22;7115;50.150;8.568;2024-02-26T15:34:07;13.10;99.90
14079;DHT22;7115;50.150;8.568;2024-02-26T15:36:34;13.10;99.90
14079;DHT22;7115;50.150;8.568;2024-02-26T15:39:02;13.20;99.90
14079;DHT22;7115;50.150;8.568;2024-02-26T15:41:30;13.30;99.90
14079;DHT22;7115;50.150;8.568;2024-02-26T15:43:58;13.20;99.90
14079;DHT22;7115;50.150;8.568;2024-02-26T15:46:27;13.20;99.90
14079;DHT22;7115;50.150;8.568;2024-02-26T15:48:55;13.20;99.90
14079;DHT22;7115;50.150;8.568;2024-02-26T15:51:23;13.20;99.90
14079;DHT22;7115;50.150;8.568;2024-02-26T15:53:51;13.20;99.90
14079;DHT22;7115;50.150;8.568;2024-02-26T15:56:20;13.10;99.90
14079;DHT22;7115;50.150;8.568;2024-02-26T15:58:51;13.10;99.90
14079;DHT22;7115;50.150;8.568;2024-02-26T16:01:20;13.00;99.90
14079;DHT22;7115;50.150;8.568;2024-02-26T16:03:51;13.00;99.90
14079;DHT22;7115;50.150;8.568;2024-02-26T16:06:22;12.90;99.90